Ciudad Victoria, Mexico

9:46 PM CDT on May 24, 2015 (GMT -0500)
Ciudad Victoria | | Change Station
CLOSE
Current Station
Airport
Location: Ciudad Victoria,
Elevation: 781 ft
Nearby Weather Stations

Elev 781 ft 23.70 °N, 98.96 °W | Updated 1 hour ago

Partly Cloudy
Partly Cloudy
79 °F
Feels Like 79 °F
N
12
Wind Variable Wind from South

Today
High -- | Low -- °F
--% Chance of Precip.
Yesterday
High -- | Low -- °F
Precip. -- in
6:50 AM 8:15 PM
Waxing Crescent, 44% visible
Pressure 29.87 in
Visibility 7.0 miles
Clouds Few 3000 ft
Dew Point 70 °F
Humidity 74%
Rainfall 0.00 in
Snow Depth Not available.
UV 0 out of 12
Pollen Not available.
Air Quality Not available.
Flu Activity Not available.
METAR MMCV 250140Z 17010KT 7SM FEW030 26/21 A2987 RMK 8/400 HZY DSNT CB 13-3-4QUAD

More Conditions Fewer Conditions

Pressure 29.87 in
Visibility 7.0 miles
Clouds Few 3000 ft
Dew Point 70 °F
Humidity 74%
Rainfall 0.00 in
Snow Depth Not available.
UV 0 out of 12
Pollen Not available.
Air Quality Not available.
Flu Activity Not available.
METAR MMCV 250140Z 17010KT 7SM FEW030 26/21 A2987 RMK 8/400 HZY DSNT CB 13-3-4QUAD

More Conditions Fewer Conditions

10-Day Weather Forecast

Almanac

Astronomy

May. 24, 2015 Rise Set
Actual Time
Civil Twilight
Nautical Twilight
Astronomical Twilight
Moon
Length of Visible Light
Length of Day
Tomorrow will be .
, % of the Moon is Illuminated

Today's Extremes

Country Highs Country Lows

Community

WunderPhotos

Upload Photos

1,823,936 photos uploaded!

WunderBlogs® & News

Nearby

Air Quality

  Air Quality AQ Index Pollutant
Not available.

Snow Depth

Station Depth Elevation

Earthquake Activity

City Distance Mag. Time & Date
Minimum magnitude displayed is 2.5.

Coastal Water Temperatures

Place Temperature

Stations

Nearby Weather Stations

Station Location Temp. Windchill Dew Point Humidity Wind Precip. Elev Updated Type